sensor_id;sensor_type;location;lat;lon;timestamp;P1;durP1;ratioP1;P2;durP2;ratioP2
8331;SDS011;4203;48.144;14.118;2023-05-10T00:01:09;6.05;;;5.47;;
8331;SDS011;4203;48.144;14.118;2023-05-10T00:03:37;5.72;;;5.22;;
8331;SDS011;4203;48.144;14.118;2023-05-10T00:06:04;4.97;;;4.68;;
8331;SDS011;4203;48.144;14.118;2023-05-10T00:08:31;5.20;;;4.78;;
8331;SDS011;4203;48.144;14.118;2023-05-10T00:11:00;5.85;;;5.10;;
8331;SDS011;4203;48.144;14.118;2023-05-10T00:13:27;5.90;;;5.30;;
8331;SDS011;4203;48.144;14.118;2023-05-10T00:15:54;6.28;;;5.53;;
8331;SDS011;4203;48.144;14.118;2023-05-10T00:18:21;5.38;;;4.97;;
8331;SDS011;4203;48.144;14.118;2023-05-10T00:20:49;5.68;;;5.15;;
8331;SDS011;4203;48.144;14.118;2023-05-10T00:23:16;5.97;;;5.03;;
8331;SDS011;4203;48.144;14.118;2023-05-10T00:25:43;5.90;;;5.40;;
8331;SDS011;4203;48.144;14.118;2023-05-10T00:28:12;5.40;;;4.90;;
8331;SDS011;4203;48.144;14.118;2023-05-10T00:30:39;5.90;;;5.30;;
8331;SDS011;4203;48.144;14.118;2023-05-10T00:33:06;5.97;;;5.47;;
8331;SDS011;4203;48.144;14.118;2023-05-10T00:35:33;6.30;;;5.70;;
8331;SDS011;4203;48.144;14.118;2023-05-10T00:38:00;5.97;;;5.38;;
8331;SDS011;4203;48.144;14.118;2023-05-10T00:40:27;6.03;;;5.35;;
8331;SDS011;4203;48.144;14.118;2023-05-10T00:42:55;5.95;;;5.38;;
8331;SDS011;4203;48.144;14.118;2023-05-10T00:45:24;7.05;;;6.35;;
8331;SDS011;4203;48.144;14.118;2023-05-10T00:47:52;5.45;;;4.85;;
8331;SDS011;4203;48.144;14.118;2023-05-10T00:50:21;5.38;;;4.97;;
8331;SDS011;4203;48.144;14.118;2023-05-10T00:52:48;6.55;;;5.03;;
8331;SDS011;4203;48.144;14.118;2023-05-10T00:55:16;5.53;;;5.13;;
8331;SDS011;4203;48.144;14.118;2023-05-10T00:57:44;6.07;;;5.55;;
8331;SDS011;4203;48.144;14.118;2023-05-10T01:00:12;5.75;;;5.13;;
8331;SDS011;4203;48.144;14.118;2023-05-10T01:02:44;5.90;;;5.40;;
8331;SDS011;4203;48.144;14.118;2023-05-10T01:05:12;6.47;;;5.60;;
8331;SDS011;4203;48.144;14.118;2023-05-10T01:07:39;6.03;;;5.43;;
8331;SDS011;4203;48.144;14.118;2023-05-10T01:10:08;5.90;;;5.40;;
8331;SDS011;4203;48.144;14.118;2023-05-10T01:12:37;6.03;;;5.45;;
8331;SDS011;4203;48.144;14.118;2023-05-10T01:15:07;7.13;;;6.53;;
8331;SDS011;4203;48.144;14.118;2023-05-10T01:17:36;9.07;;;6.57;;
8331;SDS011;4203;48.144;14.118;2023-05-10T01:20:08;8.03;;;6.57;;
8331;SDS011;4203;48.144;14.118;2023-05-10T01:22:42;7.47;;;6.77;;
8331;SDS011;4203;48.144;14.118;2023-05-10T01:25:45;6.63;;;5.67;;
8331;SDS011;4203;48.144;14.118;2023-05-10T01:28:37;6.50;;;6.00;;
8331;SDS011;4203;48.144;14.118;2023-05-10T01:31:18;8.47;;;6.40;;
8331;SDS011;4203;48.144;14.118;2023-05-10T01:33:52;6.70;;;6.10;;
8331;SDS011;4203;48.144;14.118;2023-05-10T01:36:23;6.00;;;5.50;;
8331;SDS011;4203;48.144;14.118;2023-05-10T01:38:57;6.80;;;6.17;;
8331;SDS011;4203;48.144;14.118;2023-05-10T01:41:29;7.57;;;6.77;;
8331;SDS011;4203;48.144;14.118;2023-05-10T01:44:04;7.03;;;6.33;;
8331;SDS011;4203;48.144;14.118;2023-05-10T01:46:36;8.57;;;7.07;;
8331;SDS011;4203;48.144;14.118;2023-05-10T01:49:07;8.07;;;7.23;;
8331;SDS011;4203;48.144;14.118;2023-05-10T01:51:36;7.43;;;6.73;;
8331;SDS011;4203;48.144;14.118;2023-05-10T01:54:07;8.13;;;7.33;;
8331;SDS011;4203;48.144;14.118;2023-05-10T01:56:37;7.40;;;6.60;;
8331;SDS011;4203;48.144;14.118;2023-05-10T01:59:08;7.93;;;7.23;;
8331;SDS011;4203;48.144;14.118;2023-05-10T02:01:39;7.50;;;6.80;;
8331;SDS011;4203;48.144;14.118;2023-05-10T02:04:09;10.33;;;7.07;;
8331;SDS011;4203;48.144;14.118;2023-05-10T02:06:38;7.90;;;7.10;;
8331;SDS011;4203;48.144;14.118;2023-05-10T02:09:06;9.37;;;7.27;;
8331;SDS011;4203;48.144;14.118;2023-05-10T02:11:35;7.83;;;7.03;;
8331;SDS011;4203;48.144;14.118;2023-05-10T02:14:05;7.30;;;6.70;;
8331;SDS011;4203;48.144;14.118;2023-05-10T02:16:35;7.60;;;6.80;;
8331;SDS011;4203;48.144;14.118;2023-05-10T02:19:04;7.50;;;6.80;;
8331;SDS011;4203;48.144;14.118;2023-05-10T02:21:35;8.33;;;7.50;;
8331;SDS011;4203;48.144;14.118;2023-05-10T02:24:04;7.47;;;6.70;;
8331;SDS011;4203;48.144;14.118;2023-05-10T02:26:32;10.30;;;6.77;;
8331;SDS011;4203;48.144;14.118;2023-05-10T02:29:00;7.77;;;7.07;;
8331;SDS011;4203;48.144;14.118;2023-05-10T02:31:29;7.73;;;7.03;;
8331;SDS011;4203;48.144;14.118;2023-05-10T02:33:58;7.57;;;6.87;;
8331;SDS011;4203;48.144;14.118;2023-05-10T02:36:27;7.50;;;6.80;;
8331;SDS011;4203;48.144;14.118;2023-05-10T02:38:56;7.23;;;6.57;;
8331;SDS011;4203;48.144;14.118;2023-05-10T02:41:24;9.27;;;7.53;;
8331;SDS011;4203;48.144;14.118;2023-05-10T02:43:54;7.90;;;7.07;;
8331;SDS011;4203;48.144;14.118;2023-05-10T02:46:25;7.43;;;6.73;;
8331;SDS011;4203;48.144;14.118;2023-05-10T02:48:52;7.47;;;6.87;;
8331;SDS011;4203;48.144;14.118;2023-05-10T02:51:20;7.90;;;7.20;;
8331;SDS011;4203;48.144;14.118;2023-05-10T02:53:50;8.90;;;8.00;;
8331;SDS011;4203;48.144;14.118;2023-05-10T02:56:23;8.87;;;7.97;;
8331;SDS011;4203;48.144;14.118;2023-05-10T02:58:55;7.77;;;6.97;;
8331;SDS011;4203;48.144;14.118;2023-05-10T03:01:22;7.57;;;6.87;;
8331;SDS011;4203;48.144;14.118;2023-05-10T03:03:49;8.33;;;7.53;;
8331;SDS011;4203;48.144;14.118;2023-05-10T03:06:16;7.93;;;7.17;;
8331;SDS011;4203;48.144;14.118;2023-05-10T03:08:44;9.67;;;7.47;;
8331;SDS011;4203;48.144;14.118;2023-05-10T03:11:16;8.90;;;7.93;;
8331;SDS011;4203;48.144;14.118;2023-05-10T03:14:01;8.33;;;7.57;;
8331;SDS011;4203;48.144;14.118;2023-05-10T03:16:40;10.90;;;7.93;;
8331;SDS011;4203;48.144;14.118;2023-05-10T03:19:12;8.93;;;8.03;;
8331;SDS011;4203;48.144;14.118;2023-05-10T03:21:45;10.50;;;7.80;;
8331;SDS011;4203;48.144;14.118;2023-05-10T03:24:17;9.13;;;8.20;;
8331;SDS011;4203;48.144;14.118;2023-05-10T03:26:48;9.53;;;8.23;;
8331;SDS011;4203;48.144;14.118;2023-05-10T03:29:18;8.90;;;8.00;;
8331;SDS011;4203;48.144;14.118;2023-05-10T03:31:46;10.33;;;8.17;;
8331;SDS011;4203;48.144;14.118;2023-05-10T03:34:13;11.37;;;9.20;;
8331;SDS011;4203;48.144;14.118;2023-05-10T03:36:41;10.13;;;9.13;;
8331;SDS011;4203;48.144;14.118;2023-05-10T03:39:08;11.13;;;8.63;;
8331;SDS011;4203;48.144;14.118;2023-05-10T03:41:35;9.87;;;8.77;;
8331;SDS011;4203;48.144;14.118;2023-05-10T03:44:04;9.33;;;8.43;;
8331;SDS011;4203;48.144;14.118;2023-05-10T03:46:31;13.23;;;8.97;;
8331;SDS011;4203;48.144;14.118;2023-05-10T03:48:58;9.70;;;8.70;;
8331;SDS011;4203;48.144;14.118;2023-05-10T03:51:25;10.50;;;8.70;;
8331;SDS011;4203;48.144;14.118;2023-05-10T03:53:53;9.43;;;8.37;;
8331;SDS011;4203;48.144;14.118;2023-05-10T03:56:20;9.57;;;8.67;;
8331;SDS011;4203;48.144;14.118;2023-05-10T03:58:47;10.23;;;8.80;;
8331;SDS011;4203;48.144;14.118;2023-05-10T04:01:16;8.07;;;7.37;;
8331;SDS011;4203;48.144;14.118;2023-05-10T04:03:43;8.27;;;7.40;;
8331;SDS011;4203;48.144;14.118;2023-05-10T04:06:10;9.40;;;8.02;;
8331;SDS011;4203;48.144;14.118;2023-05-10T04:08:38;10.60;;;7.80;;
8331;SDS011;4203;48.144;14.118;2023-05-10T04:11:05;8.80;;;8.00;;
8331;SDS011;4203;48.144;14.118;2023-05-10T04:13:33;8.83;;;7.97;;
8331;SDS011;4203;48.144;14.118;2023-05-10T04:16:00;9.07;;;8.23;;
8331;SDS011;4203;48.144;14.118;2023-05-10T04:18:28;8.80;;;8.00;;
8331;SDS011;4203;48.144;14.118;2023-05-10T04:20:56;8.70;;;7.90;;
8331;SDS011;4203;48.144;14.118;2023-05-10T04:23:23;9.05;;;8.10;;
8331;SDS011;4203;48.144;14.118;2023-05-10T04:25:50;9.13;;;8.25;;
8331;SDS011;4203;48.144;14.118;2023-05-10T04:28:18;8.40;;;7.60;;
8331;SDS011;4203;48.144;14.118;2023-05-10T04:30:45;9.05;;;8.15;;
8331;SDS011;4203;48.144;14.118;2023-05-10T04:33:13;8.38;;;7.57;;
8331;SDS011;4203;48.144;14.118;2023-05-10T04:35:41;9.32;;;7.90;;
8331;SDS011;4203;48.144;14.118;2023-05-10T04:38:09;8.65;;;7.85;;
8331;SDS011;4203;48.144;14.118;2023-05-10T04:40:37;8.48;;;7.75;;
8331;SDS011;4203;48.144;14.118;2023-05-10T04:43:04;9.50;;;7.45;;
8331;SDS011;4203;48.144;14.118;2023-05-10T04:45:31;10.00;;;7.53;;
8331;SDS011;4203;48.144;14.118;2023-05-10T04:47:58;8.30;;;7.57;;
8331;SDS011;4203;48.144;14.118;2023-05-10T04:50:26;8.32;;;7.50;;
8331;SDS011;4203;48.144;14.118;2023-05-10T04:52:55;8.40;;;7.60;;
8331;SDS011;4203;48.144;14.118;2023-05-10T04:55:22;7.45;;;6.75;;
8331;SDS011;4203;48.144;14.118;2023-05-10T04:57:49;7.70;;;7.00;;
8331;SDS011;4203;48.144;14.118;2023-05-10T05:00:17;7.65;;;6.85;;
8331;SDS011;4203;48.144;14.118;2023-05-10T05:02:44;7.78;;;7.07;;
8331;SDS011;4203;48.144;14.118;2023-05-10T05:05:12;8.43;;;7.32;;
8331;SDS011;4203;48.144;14.118;2023-05-10T05:07:39;7.60;;;6.97;;
8331;SDS011;4203;48.144;14.118;2023-05-10T05:10:08;8.07;;;7.25;;
8331;SDS011;4203;48.144;14.118;2023-05-10T05:12:35;8.77;;;7.05;;
8331;SDS011;4203;48.144;14.118;2023-05-10T05:15:03;7.53;;;6.70;;
8331;SDS011;4203;48.144;14.118;2023-05-10T05:17:30;8.25;;;7.45;;
8331;SDS011;4203;48.144;14.118;2023-05-10T05:19:57;7.70;;;6.90;;
8331;SDS011;4203;48.144;14.118;2023-05-10T05:22:25;7.13;;;6.53;;
8331;SDS011;4203;48.144;14.118;2023-05-10T05:24:53;7.20;;;6.60;;
8331;SDS011;4203;48.144;14.118;2023-05-10T05:27:21;8.02;;;7.30;;
8331;SDS011;4203;48.144;14.118;2023-05-10T05:29:52;8.25;;;7.07;;
8331;SDS011;4203;48.144;14.118;2023-05-10T05:32:19;6.80;;;6.30;;
8331;SDS011;4203;48.144;14.118;2023-05-10T05:34:46;8.68;;;6.78;;
8331;SDS011;4203;48.144;14.118;2023-05-10T05:37:14;8.63;;;7.68;;
8331;SDS011;4203;48.144;14.118;2023-05-10T05:39:41;8.00;;;7.28;;
8331;SDS011;4203;48.144;14.118;2023-05-10T05:42:09;8.13;;;7.43;;
8331;SDS011;4203;48.144;14.118;2023-05-10T05:44:37;8.07;;;7.28;;
8331;SDS011;4203;48.144;14.118;2023-05-10T05:47:05;7.60;;;6.93;;
8331;SDS011;4203;48.144;14.118;2023-05-10T05:49:33;8.85;;;7.28;;
8331;SDS011;4203;48.144;14.118;2023-05-10T05:52:00;7.53;;;6.82;;
8331;SDS011;4203;48.144;14.118;2023-05-10T05:54:27;8.02;;;7.28;;
8331;SDS011;4203;48.144;14.118;2023-05-10T05:56:54;10.23;;;7.85;;
8331;SDS011;4203;48.144;14.118;2023-05-10T05:59:23;8.35;;;7.55;;
8331;SDS011;4203;48.144;14.118;2023-05-10T06:01:52;10.23;;;8.57;;
8331;SDS011;4203;48.144;14.118;2023-05-10T06:04:19;8.57;;;7.75;;
8331;SDS011;4203;48.144;14.118;2023-05-10T06:06:46;9.57;;;8.60;;
8331;SDS011;4203;48.144;14.118;2023-05-10T06:09:14;8.40;;;7.60;;
8331;SDS011;4203;48.144;14.118;2023-05-10T06:11:42;9.30;;;8.50;;
8331;SDS011;4203;48.144;14.118;2023-05-10T06:14:09;9.20;;;8.32;;
8331;SDS011;4203;48.144;14.118;2023-05-10T06:16:36;8.88;;;7.97;;
8331;SDS011;4203;48.144;14.118;2023-05-10T06:19:04;9.60;;;8.57;;
8331;SDS011;4203;48.144;14.118;2023-05-10T06:21:31;9.60;;;8.60;;
8331;SDS011;4203;48.144;14.118;2023-05-10T06:23:59;9.10;;;8.18;;
8331;SDS011;4203;48.144;14.118;2023-05-10T06:26:26;9.20;;;8.30;;
8331;SDS011;4203;48.144;14.118;2023-05-10T06:28:53;9.82;;;8.82;;
8331;SDS011;4203;48.144;14.118;2023-05-10T06:31:20;9.82;;;8.95;;
8331;SDS011;4203;48.144;14.118;2023-05-10T06:33:47;9.82;;;8.93;;
8331;SDS011;4203;48.144;14.118;2023-05-10T06:36:16;10.18;;;9.18;;
8331;SDS011;4203;48.144;14.118;2023-05-10T06:38:43;10.30;;;8.95;;
8331;SDS011;4203;48.144;14.118;2023-05-10T06:41:10;10.98;;;9.20;;
8331;SDS011;4203;48.144;14.118;2023-05-10T06:43:37;9.95;;;8.95;;
8331;SDS011;4203;48.144;14.118;2023-05-10T06:46:06;10.75;;;8.82;;
8331;SDS011;4203;48.144;14.118;2023-05-10T06:48:33;10.07;;;9.10;;
8331;SDS011;4203;48.144;14.118;2023-05-10T06:51:00;11.52;;;9.50;;
8331;SDS011;4203;48.144;14.118;2023-05-10T06:53:29;10.00;;;8.38;;
8331;SDS011;4203;48.144;14.118;2023-05-10T06:55:56;8.77;;;7.97;;
8331;SDS011;4203;48.144;14.118;2023-05-10T06:58:23;9.63;;;8.68;;
8331;SDS011;4203;48.144;14.118;2023-05-10T07:01:01;8.60;;;7.60;;
8331;SDS011;4203;48.144;14.118;2023-05-10T07:03:29;9.02;;;8.02;;
8331;SDS011;4203;48.144;14.118;2023-05-10T07:05:59;9.25;;;8.35;;
8331;SDS011;4203;48.144;14.118;2023-05-10T07:08:30;15.68;;;8.35;;
8331;SDS011;4203;48.144;14.118;2023-05-10T07:10:59;9.70;;;7.90;;
8331;SDS011;4203;48.144;14.118;2023-05-10T07:13:27;9.70;;;8.13;;
8331;SDS011;4203;48.144;14.118;2023-05-10T07:15:54;8.68;;;7.80;;
8331;SDS011;4203;48.144;14.118;2023-05-10T07:18:21;9.23;;;8.40;;
8331;SDS011;4203;48.144;14.118;2023-05-10T07:20:48;8.75;;;8.05;;
8331;SDS011;4203;48.144;14.118;2023-05-10T07:23:15;12.30;;;8.63;;
8331;SDS011;4203;48.144;14.118;2023-05-10T07:25:45;10.00;;;9.20;;
8331;SDS011;4203;48.144;14.118;2023-05-10T07:28:13;9.75;;;8.10;;
8331;SDS011;4203;48.144;14.118;2023-05-10T07:30:41;10.25;;;9.32;;
8331;SDS011;4203;48.144;14.118;2023-05-10T07:33:08;11.90;;;8.65;;
8331;SDS011;4203;48.144;14.118;2023-05-10T07:35:37;9.30;;;8.32;;
8331;SDS011;4203;48.144;14.118;2023-05-10T07:38:04;12.23;;;8.85;;
8331;SDS011;4203;48.144;14.118;2023-05-10T07:40:32;13.48;;;8.60;;
8331;SDS011;4203;48.144;14.118;2023-05-10T07:43:01;9.23;;;8.40;;
8331;SDS011;4203;48.144;14.118;2023-05-10T07:45:28;8.57;;;7.78;;
8331;SDS011;4203;48.144;14.118;2023-05-10T07:47:55;10.02;;;8.55;;
8331;SDS011;4203;48.144;14.118;2023-05-10T07:50:23;9.18;;;8.27;;
8331;SDS011;4203;48.144;14.118;2023-05-10T07:52:50;9.07;;;8.13;;
8331;SDS011;4203;48.144;14.118;2023-05-10T07:55:18;8.50;;;7.80;;
8331;SDS011;4203;48.144;14.118;2023-05-10T07:57:46;8.60;;;7.80;;
8331;SDS011;4203;48.144;14.118;2023-05-10T08:00:18;11.90;;;8.52;;
8331;SDS011;4203;48.144;14.118;2023-05-10T08:02:46;10.40;;;8.82;;
8331;SDS011;4203;48.144;14.118;2023-05-10T08:05:13;10.05;;;7.47;;
8331;SDS011;4203;48.144;14.118;2023-05-10T08:07:41;8.98;;;8.18;;
8331;SDS011;4203;48.144;14.118;2023-05-10T08:10:08;8.15;;;7.43;;
8331;SDS011;4203;48.144;14.118;2023-05-10T08:12:37;9.90;;;7.35;;
8331;SDS011;4203;48.144;14.118;2023-05-10T08:15:05;7.68;;;6.93;;
8331;SDS011;4203;48.144;14.118;2023-05-10T08:17:34;8.85;;;7.95;;
8331;SDS011;4203;48.144;14.118;2023-05-10T08:20:01;7.85;;;7.15;;
8331;SDS011;4203;48.144;14.118;2023-05-10T08:22:29;7.60;;;6.88;;
8331;SDS011;4203;48.144;14.118;2023-05-10T08:24:56;7.32;;;6.63;;
8331;SDS011;4203;48.144;14.118;2023-05-10T08:27:23;8.73;;;7.40;;
8331;SDS011;4203;48.144;14.118;2023-05-10T08:29:50;7.53;;;6.13;;
8331;SDS011;4203;48.144;14.118;2023-05-10T08:32:17;7.07;;;6.47;;
8331;SDS011;4203;48.144;14.118;2023-05-10T08:34:46;7.82;;;6.82;;
8331;SDS011;4203;48.144;14.118;2023-05-10T08:37:14;6.38;;;5.85;;
8331;SDS011;4203;48.144;14.118;2023-05-10T08:39:42;8.60;;;6.97;;
8331;SDS011;4203;48.144;14.118;2023-05-10T08:42:10;6.88;;;6.15;;
8331;SDS011;4203;48.144;14.118;2023-05-10T08:44:41;6.60;;;6.03;;
8331;SDS011;4203;48.144;14.118;2023-05-10T08:47:08;6.97;;;6.38;;
8331;SDS011;4203;48.144;14.118;2023-05-10T08:49:36;6.40;;;5.80;;
8331;SDS011;4203;48.144;14.118;2023-05-10T08:52:05;6.75;;;6.15;;
8331;SDS011;4203;48.144;14.118;2023-05-10T08:54:33;6.82;;;6.13;;
8331;SDS011;4203;48.144;14.118;2023-05-10T08:57:01;6.60;;;6.00;;
8331;SDS011;4203;48.144;14.118;2023-05-10T08:59:28;6.95;;;6.35;;
8331;SDS011;4203;48.144;14.118;2023-05-10T09:01:55;7.28;;;6.57;;
8331;SDS011;4203;48.144;14.118;2023-05-10T09:04:24;6.75;;;6.03;;
8331;SDS011;4203;48.144;14.118;2023-05-10T09:06:52;6.53;;;5.93;;
8331;SDS011;4203;48.144;14.118;2023-05-10T09:09:20;6.95;;;6.35;;
8331;SDS011;4203;48.144;14.118;2023-05-10T09:11:49;6.32;;;5.85;;
8331;SDS011;4203;48.144;14.118;2023-05-10T09:14:17;7.13;;;6.53;;
8331;SDS011;4203;48.144;14.118;2023-05-10T09:16:46;6.78;;;6.18;;
8331;SDS011;4203;48.144;14.118;2023-05-10T09:19:13;6.47;;;5.97;;
8331;SDS011;4203;48.144;14.118;2023-05-10T09:21:40;6.93;;;5.97;;
8331;SDS011;4203;48.144;14.118;2023-05-10T09:24:08;7.60;;;5.72;;
8331;SDS011;4203;48.144;14.118;2023-05-10T09:26:39;6.13;;;5.53;;
8331;SDS011;4203;48.144;14.118;2023-05-10T09:29:13;9.55;;;5.57;;
8331;SDS011;4203;48.144;14.118;2023-05-10T09:31:44;6.88;;;5.90;;
8331;SDS011;4203;48.144;14.118;2023-05-10T09:34:15;6.20;;;5.60;;
8331;SDS011;4203;48.144;14.118;2023-05-10T09:36:50;5.93;;;5.43;;
8331;SDS011;4203;48.144;14.118;2023-05-10T09:39:19;6.20;;;5.70;;
8331;SDS011;4203;48.144;14.118;2023-05-10T09:41:48;6.65;;;6.15;;
8331;SDS011;4203;48.144;14.118;2023-05-10T09:44:18;7.28;;;6.00;;
8331;SDS011;4203;48.144;14.118;2023-05-10T09:46:49;7.13;;;6.13;;
8331;SDS011;4203;48.144;14.118;2023-05-10T09:49:17;6.07;;;5.57;;
8331;SDS011;4203;48.144;14.118;2023-05-10T09:51:45;6.78;;;6.18;;
8331;SDS011;4203;48.144;14.118;2023-05-10T09:54:13;7.00;;;6.43;;
8331;SDS011;4203;48.144;14.118;2023-05-10T09:56:41;6.50;;;6.05;;
8331;SDS011;4203;48.144;14.118;2023-05-10T09:59:11;6.57;;;5.97;;
8331;SDS011;4203;48.144;14.118;2023-05-10T10:01:38;6.47;;;5.68;;
8331;SDS011;4203;48.144;14.118;2023-05-10T10:04:08;7.00;;;6.40;;
8331;SDS011;4203;48.144;14.118;2023-05-10T10:06:36;6.15;;;5.68;;
8331;SDS011;4203;48.144;14.118;2023-05-10T10:09:04;6.07;;;5.57;;
8331;SDS011;4203;48.144;14.118;2023-05-10T10:11:34;6.05;;;5.45;;
8331;SDS011;4203;48.144;14.118;2023-05-10T10:14:02;6.57;;;5.97;;
8331;SDS011;4203;48.144;14.118;2023-05-10T10:16:31;6.18;;;5.78;;
8331;SDS011;4203;48.144;14.118;2023-05-10T10:18:59;5.70;;;5.30;;
8331;SDS011;4203;48.144;14.118;2023-05-10T10:21:26;5.80;;;5.30;;
8331;SDS011;4203;48.144;14.118;2023-05-10T10:23:54;7.15;;;5.97;;
8331;SDS011;4203;48.144;14.118;2023-05-10T10:26:21;6.18;;;5.60;;
8331;SDS011;4203;48.144;14.118;2023-05-10T10:28:51;6.78;;;5.53;;
8331;SDS011;4203;48.144;14.118;2023-05-10T10:31:32;5.35;;;4.95;;
8331;SDS011;4203;48.144;14.118;2023-05-10T10:34:07;6.10;;;5.60;;
8331;SDS011;4203;48.144;14.118;2023-05-10T10:36:42;6.30;;;5.47;;
8331;SDS011;4203;48.144;14.118;2023-05-10T10:39:11;6.32;;;5.82;;
8331;SDS011;4203;48.144;14.118;2023-05-10T10:41:40;6.18;;;5.57;;
8331;SDS011;4203;48.144;14.118;2023-05-10T10:44:23;6.32;;;5.70;;
8331;SDS011;4203;48.144;14.118;2023-05-10T10:46:59;6.25;;;5.75;;
8331;SDS011;4203;48.144;14.118;2023-05-10T10:49:42;9.00;;;6.38;;
8331;SDS011;4203;48.144;14.118;2023-05-10T10:52:15;7.03;;;6.47;;
8331;SDS011;4203;48.144;14.118;2023-05-10T10:54:51;7.00;;;6.50;;
8331;SDS011;4203;48.144;14.118;2023-05-10T10:57:18;6.95;;;6.45;;
8331;SDS011;4203;48.144;14.118;2023-05-10T10:59:48;7.38;;;6.72;;
8331;SDS011;4203;48.144;14.118;2023-05-10T11:02:37;7.13;;;6.53;;
8331;SDS011;4203;48.144;14.118;2023-05-10T11:08:09;7.38;;;6.68;;
8331;SDS011;4203;48.144;14.118;2023-05-10T11:10:38;11.65;;;8.13;;
8331;SDS011;4203;48.144;14.118;2023-05-10T11:13:07;7.43;;;6.90;;
8331;SDS011;4203;48.144;14.118;2023-05-10T11:15:37;8.85;;;8.15;;
8331;SDS011;4203;48.144;14.118;2023-05-10T11:18:18;8.13;;;7.53;;
8331;SDS011;4203;48.144;14.118;2023-05-10T11:20:49;7.82;;;7.22;;
8331;SDS011;4203;48.144;14.118;2023-05-10T11:23:17;8.27;;;7.57;;
8331;SDS011;4203;48.144;14.118;2023-05-10T11:25:46;8.32;;;7.72;;
8331;SDS011;4203;48.144;14.118;2023-05-10T11:28:16;7.88;;;7.03;;
8331;SDS011;4203;48.144;14.118;2023-05-10T11:30:44;8.68;;;7.93;;
8331;SDS011;4203;48.144;14.118;2023-05-10T11:33:15;7.30;;;6.60;;
8331;SDS011;4203;48.144;14.118;2023-05-10T11:35:44;2.28;;;2.17;;
8331;SDS011;4203;48.144;14.118;2023-05-10T11:38:12;1.48;;;1.48;;
8331;SDS011;4203;48.144;14.118;2023-05-10T11:40:40;1.70;;;1.60;;
8331;SDS011;4203;48.144;14.118;2023-05-10T11:43:08;1.90;;;1.80;;
8331;SDS011;4203;48.144;14.118;2023-05-10T11:45:36;2.10;;;1.92;;
8331;SDS011;4203;48.144;14.118;2023-05-10T11:48:04;2.47;;;1.60;;
8331;SDS011;4203;48.144;14.118;2023-05-10T11:50:31;1.52;;;1.52;;
8331;SDS011;4203;48.144;14.118;2023-05-10T11:53:00;1.40;;;1.40;;
8331;SDS011;4203;48.144;14.118;2023-05-10T11:55:27;2.10;;;2.00;;
8331;SDS011;4203;48.144;14.118;2023-05-10T11:57:59;3.08;;;1.80;;
8331;SDS011;4203;48.144;14.118;2023-05-10T12:00:27;2.38;;;1.50;;
8331;SDS011;4203;48.144;14.118;2023-05-10T12:02:55;1.17;;;1.17;;
8331;SDS011;4203;48.144;14.118;2023-05-10T12:05:22;1.20;;;1.20;;
8331;SDS011;4203;48.144;14.118;2023-05-10T12:07:50;1.08;;;1.08;;
8331;SDS011;4203;48.144;14.118;2023-05-10T12:10:25;1.40;;;1.30;;
8331;SDS011;4203;48.144;14.118;2023-05-10T12:12:53;1.58;;;1.20;;
8331;SDS011;4203;48.144;14.118;2023-05-10T12:15:21;1.50;;;1.50;;
8331;SDS011;4203;48.144;14.118;2023-05-10T12:17:49;1.50;;;1.40;;
8331;SDS011;4203;48.144;14.118;2023-05-10T12:20:17;1.27;;;1.27;;
8331;SDS011;4203;48.144;14.118;2023-05-10T12:22:46;1.20;;;1.20;;
8331;SDS011;4203;48.144;14.118;2023-05-10T12:25:15;1.67;;;1.58;;
8331;SDS011;4203;48.144;14.118;2023-05-10T12:27:51;1.67;;;1.58;;
8331;SDS011;4203;48.144;14.118;2023-05-10T12:30:19;1.88;;;1.85;;
8331;SDS011;4203;48.144;14.118;2023-05-10T12:32:47;1.88;;;1.80;;
8331;SDS011;4203;48.144;14.118;2023-05-10T12:35:15;1.92;;;1.73;;
8331;SDS011;4203;48.144;14.118;2023-05-10T12:37:45;2.03;;;1.92;;
8331;SDS011;4203;48.144;14.118;2023-05-10T12:40:13;1.52;;;1.45;;
8331;SDS011;4203;48.144;14.118;2023-05-10T12:42:40;1.65;;;1.55;;
8331;SDS011;4203;48.144;14.118;2023-05-10T12:45:11;1.13;;;1.13;;
8331;SDS011;4203;48.144;14.118;2023-05-10T12:47:38;1.27;;;1.27;;
8331;SDS011;4203;48.144;14.118;2023-05-10T12:50:06;1.10;;;1.10;;
8331;SDS011;4203;48.144;14.118;2023-05-10T12:52:34;1.10;;;1.10;;
8331;SDS011;4203;48.144;14.118;2023-05-10T12:55:01;0.70;;;0.70;;
8331;SDS011;4203;48.144;14.118;2023-05-10T12:57:28;0.80;;;0.80;;
8331;SDS011;4203;48.144;14.118;2023-05-10T12:59:55;1.00;;;1.00;;
8331;SDS011;4203;48.144;14.118;2023-05-10T13:02:24;2.67;;;1.10;;
8331;SDS011;4203;48.144;14.118;2023-05-10T13:04:52;1.30;;;1.30;;
8331;SDS011;4203;48.144;14.118;2023-05-10T13:07:19;1.40;;;1.40;;
8331;SDS011;4203;48.144;14.118;2023-05-10T13:09:47;2.25;;;1.08;;
8331;SDS011;4203;48.144;14.118;2023-05-10T13:12:14;1.23;;;1.20;;
8331;SDS011;4203;48.144;14.118;2023-05-10T13:14:41;1.08;;;1.00;;
8331;SDS011;4203;48.144;14.118;2023-05-10T13:17:08;1.30;;;1.17;;
8331;SDS011;4203;48.144;14.118;2023-05-10T13:19:37;1.30;;;1.20;;
8331;SDS011;4203;48.144;14.118;2023-05-10T13:22:04;1.20;;;1.20;;
8331;SDS011;4203;48.144;14.118;2023-05-10T13:24:31;1.50;;;1.50;;
8331;SDS011;4203;48.144;14.118;2023-05-10T13:26:58;1.42;;;1.40;;
8331;SDS011;4203;48.144;14.118;2023-05-10T13:29:26;1.38;;;1.15;;
8331;SDS011;4203;48.144;14.118;2023-05-10T13:31:53;1.02;;;1.02;;
8331;SDS011;4203;48.144;14.118;2023-05-10T13:34:21;1.63;;;1.63;;
8331;SDS011;4203;48.144;14.118;2023-05-10T13:36:50;1.45;;;1.45;;
8331;SDS011;4203;48.144;14.118;2023-05-10T13:39:19;1.60;;;1.50;;
8331;SDS011;4203;48.144;14.118;2023-05-10T13:41:47;1.88;;;1.75;;
8331;SDS011;4203;48.144;14.118;2023-05-10T13:44:14;1.98;;;1.88;;
8331;SDS011;4203;48.144;14.118;2023-05-10T13:46:42;2.10;;;2.00;;
8331;SDS011;4203;48.144;14.118;2023-05-10T13:49:10;1.90;;;1.80;;
8331;SDS011;4203;48.144;14.118;2023-05-10T13:51:38;2.10;;;2.00;;
8331;SDS011;4203;48.144;14.118;2023-05-10T13:54:07;1.70;;;1.70;;
8331;SDS011;4203;48.144;14.118;2023-05-10T13:56:34;1.77;;;1.75;;
8331;SDS011;4203;48.144;14.118;2023-05-10T13:59:01;1.35;;;1.35;;
8331;SDS011;4203;48.144;14.118;2023-05-10T14:01:29;1.70;;;1.60;;
8331;SDS011;4203;48.144;14.118;2023-05-10T14:03:56;1.40;;;1.30;;
8331;SDS011;4203;48.144;14.118;2023-05-10T14:06:23;1.30;;;1.30;;
8331;SDS011;4203;48.144;14.118;2023-05-10T14:08:52;1.50;;;1.50;;
8331;SDS011;4203;48.144;14.118;2023-05-10T14:11:21;1.55;;;1.50;;
8331;SDS011;4203;48.144;14.118;2023-05-10T14:13:48;1.30;;;1.30;;
8331;SDS011;4203;48.144;14.118;2023-05-10T14:16:16;1.13;;;1.10;;
8331;SDS011;4203;48.144;14.118;2023-05-10T14:18:43;1.30;;;1.30;;
8331;SDS011;4203;48.144;14.118;2023-05-10T14:21:11;1.33;;;1.25;;
8331;SDS011;4203;48.144;14.118;2023-05-10T14:23:39;1.10;;;1.10;;
8331;SDS011;4203;48.144;14.118;2023-05-10T14:26:06;1.98;;;1.33;;
8331;SDS011;4203;48.144;14.118;2023-05-10T14:28:35;0.93;;;0.93;;
8331;SDS011;4203;48.144;14.118;2023-05-10T14:31:02;1.05;;;1.05;;
8331;SDS011;4203;48.144;14.118;2023-05-10T14:33:30;1.20;;;1.20;;
8331;SDS011;4203;48.144;14.118;2023-05-10T14:35:57;1.20;;;1.20;;
8331;SDS011;4203;48.144;14.118;2023-05-10T14:38:25;1.58;;;1.58;;
8331;SDS011;4203;48.144;14.118;2023-05-10T14:40:54;1.88;;;1.77;;
8331;SDS011;4203;48.144;14.118;2023-05-10T14:43:21;1.92;;;1.92;;
8331;SDS011;4203;48.144;14.118;2023-05-10T14:45:49;1.80;;;1.80;;
8331;SDS011;4203;48.144;14.118;2023-05-10T14:48:16;1.45;;;1.42;;
8331;SDS011;4203;48.144;14.118;2023-05-10T14:50:44;1.80;;;1.70;;
8331;SDS011;4203;48.144;14.118;2023-05-10T14:53:12;1.50;;;1.50;;
8331;SDS011;4203;48.144;14.118;2023-05-10T14:55:39;1.50;;;1.40;;
8331;SDS011;4203;48.144;14.118;2023-05-10T14:58:06;1.67;;;1.58;;
8331;SDS011;4203;48.144;14.118;2023-05-10T15:00:33;1.35;;;1.35;;
8331;SDS011;4203;48.144;14.118;2023-05-10T15:03:02;0.90;;;0.90;;
8331;SDS011;4203;48.144;14.118;2023-05-10T15:05:30;1.50;;;1.50;;
8331;SDS011;4203;48.144;14.118;2023-05-10T15:07:57;1.60;;;1.60;;
8331;SDS011;4203;48.144;14.118;2023-05-10T15:10:24;1.60;;;1.60;;
8331;SDS011;4203;48.144;14.118;2023-05-10T15:12:51;1.67;;;1.67;;